sensor_id;sensor_type;location;lat;lon;timestamp;P1;durP1;ratioP1;P2;durP2;ratioP2
2992;SDS011;1506;48.932;9.478;2022-09-17T00:01:05;1.33;;;1.33;;
2992;SDS011;1506;48.932;9.478;2022-09-17T00:03:33;0.90;;;0.90;;
2992;SDS011;1506;48.932;9.478;2022-09-17T00:06:07;1.00;;;1.00;;
2992;SDS011;1506;48.932;9.478;2022-09-17T00:08:37;1.20;;;1.10;;
2992;SDS011;1506;48.932;9.478;2022-09-17T00:11:09;3.37;;;1.07;;
2992;SDS011;1506;48.932;9.478;2022-09-17T00:13:39;2.73;;;1.00;;
2992;SDS011;1506;48.932;9.478;2022-09-17T00:19:05;1.53;;;1.43;;
2992;SDS011;1506;48.932;9.478;2022-09-17T00:21:35;1.10;;;1.10;;
2992;SDS011;1506;48.932;9.478;2022-09-17T00:24:03;0.97;;;0.80;;
2992;SDS011;1506;48.932;9.478;2022-09-17T00:26:32;3.13;;;1.10;;
2992;SDS011;1506;48.932;9.478;2022-09-17T00:29:00;1.57;;;1.47;;
2992;SDS011;1506;48.932;9.478;2022-09-17T00:31:28;1.00;;;1.00;;
2992;SDS011;1506;48.932;9.478;2022-09-17T00:33:56;1.30;;;1.20;;
2992;SDS011;1506;48.932;9.478;2022-09-17T00:36:24;1.13;;;1.03;;
2992;SDS011;1506;48.932;9.478;2022-09-17T00:38:55;1.30;;;1.20;;
2992;SDS011;1506;48.932;9.478;2022-09-17T00:41:25;0.80;;;0.80;;
2992;SDS011;1506;48.932;9.478;2022-09-17T00:43:55;0.80;;;0.80;;
2992;SDS011;1506;48.932;9.478;2022-09-17T00:46:34;1.03;;;0.80;;
2992;SDS011;1506;48.932;9.478;2022-09-17T00:49:15;0.90;;;0.90;;
2992;SDS011;1506;48.932;9.478;2022-09-17T00:52:04;1.50;;;1.40;;
2992;SDS011;1506;48.932;9.478;2022-09-17T00:54:35;0.93;;;0.93;;
2992;SDS011;1506;48.932;9.478;2022-09-17T00:57:05;1.13;;;1.03;;
2992;SDS011;1506;48.932;9.478;2022-09-17T00:59:33;1.23;;;1.13;;
2992;SDS011;1506;48.932;9.478;2022-09-17T01:02:00;0.80;;;0.80;;
2992;SDS011;1506;48.932;9.478;2022-09-17T01:04:28;1.27;;;1.17;;
2992;SDS011;1506;48.932;9.478;2022-09-17T01:07:08;1.20;;;1.20;;
2992;SDS011;1506;48.932;9.478;2022-09-17T01:12:25;2.80;;;1.20;;
2992;SDS011;1506;48.932;9.478;2022-09-17T01:14:59;1.03;;;1.03;;
2992;SDS011;1506;48.932;9.478;2022-09-17T01:18:01;1.20;;;0.80;;
2992;SDS011;1506;48.932;9.478;2022-09-17T01:40:29;2.50;;;1.00;;
2992;SDS011;1506;48.932;9.478;2022-09-17T01:43:10;1.60;;;1.07;;
2992;SDS011;1506;48.932;9.478;2022-09-17T01:45:50;2.00;;;0.80;;
2992;SDS011;1506;48.932;9.478;2022-09-17T01:48:43;1.43;;;1.33;;
2992;SDS011;1506;48.932;9.478;2022-09-17T01:51:19;1.20;;;1.20;;
2992;SDS011;1506;48.932;9.478;2022-09-17T01:54:00;0.77;;;0.77;;
2992;SDS011;1506;48.932;9.478;2022-09-17T01:57:06;1.37;;;1.37;;
2992;SDS011;1506;48.932;9.478;2022-09-17T01:59:35;1.10;;;1.10;;
2992;SDS011;1506;48.932;9.478;2022-09-17T02:02:43;1.27;;;0.93;;
2992;SDS011;1506;48.932;9.478;2022-09-17T02:07:48;1.10;;;1.10;;
2992;SDS011;1506;48.932;9.478;2022-09-17T02:10:19;1.33;;;1.23;;
2992;SDS011;1506;48.932;9.478;2022-09-17T02:12:56;12.93;;;1.50;;
2992;SDS011;1506;48.932;9.478;2022-09-17T02:15:30;0.90;;;0.90;;
2992;SDS011;1506;48.932;9.478;2022-09-17T02:18:08;6.40;;;1.20;;
2992;SDS011;1506;48.932;9.478;2022-09-17T02:20:49;1.50;;;1.40;;
2992;SDS011;1506;48.932;9.478;2022-09-17T02:23:23;1.20;;;1.20;;
2992;SDS011;1506;48.932;9.478;2022-09-17T02:26:01;1.30;;;1.20;;
2992;SDS011;1506;48.932;9.478;2022-09-17T02:28:47;5.83;;;1.40;;
2992;SDS011;1506;48.932;9.478;2022-09-17T02:31:17;1.93;;;1.67;;
2992;SDS011;1506;48.932;9.478;2022-09-17T02:33:46;2.00;;;0.97;;
2992;SDS011;1506;48.932;9.478;2022-09-17T02:36:15;1.40;;;1.30;;
2992;SDS011;1506;48.932;9.478;2022-09-17T02:38:44;1.37;;;1.27;;
2992;SDS011;1506;48.932;9.478;2022-09-17T02:46:55;1.23;;;1.17;;
2992;SDS011;1506;48.932;9.478;2022-09-17T03:00:49;6.20;;;1.30;;
2992;SDS011;1506;48.932;9.478;2022-09-17T03:03:37;2.00;;;1.77;;
2992;SDS011;1506;48.932;9.478;2022-09-17T03:06:06;6.07;;;2.10;;
2992;SDS011;1506;48.932;9.478;2022-09-17T03:08:39;3.53;;;1.33;;
2992;SDS011;1506;48.932;9.478;2022-09-17T03:11:07;1.20;;;1.10;;
2992;SDS011;1506;48.932;9.478;2022-09-17T03:13:35;1.57;;;1.47;;
2992;SDS011;1506;48.932;9.478;2022-09-17T03:16:03;3.67;;;3.20;;
2992;SDS011;1506;48.932;9.478;2022-09-17T03:18:31;2.73;;;1.60;;
2992;SDS011;1506;48.932;9.478;2022-09-17T03:20:58;1.90;;;1.80;;
2992;SDS011;1506;48.932;9.478;2022-09-17T03:23:26;1.70;;;1.60;;
2992;SDS011;1506;48.932;9.478;2022-09-17T03:25:53;3.50;;;2.00;;
2992;SDS011;1506;48.932;9.478;2022-09-17T03:28:21;1.83;;;1.73;;
2992;SDS011;1506;48.932;9.478;2022-09-17T03:30:48;1.50;;;1.40;;
2992;SDS011;1506;48.932;9.478;2022-09-17T03:33:15;1.53;;;1.43;;
2992;SDS011;1506;48.932;9.478;2022-09-17T03:35:43;3.53;;;1.30;;
2992;SDS011;1506;48.932;9.478;2022-09-17T03:38:11;2.10;;;1.03;;
2992;SDS011;1506;48.932;9.478;2022-09-17T03:40:39;1.50;;;1.40;;
2992;SDS011;1506;48.932;9.478;2022-09-17T03:43:06;2.03;;;1.50;;
2992;SDS011;1506;48.932;9.478;2022-09-17T03:45:34;1.97;;;1.80;;
2992;SDS011;1506;48.932;9.478;2022-09-17T03:48:01;7.93;;;1.80;;
2992;SDS011;1506;48.932;9.478;2022-09-17T03:50:29;5.37;;;1.80;;
2992;SDS011;1506;48.932;9.478;2022-09-17T03:52:57;7.90;;;1.83;;
2992;SDS011;1506;48.932;9.478;2022-09-17T03:55:24;6.13;;;1.63;;
2992;SDS011;1506;48.932;9.478;2022-09-17T03:57:52;2.33;;;2.20;;
2992;SDS011;1506;48.932;9.478;2022-09-17T04:00:19;1.60;;;1.33;;
2992;SDS011;1506;48.932;9.478;2022-09-17T04:02:46;1.50;;;1.40;;
2992;SDS011;1506;48.932;9.478;2022-09-17T04:05:14;4.83;;;1.80;;
2992;SDS011;1506;48.932;9.478;2022-09-17T04:07:41;2.57;;;1.20;;
2992;SDS011;1506;48.932;9.478;2022-09-17T04:10:09;6.63;;;2.10;;
2992;SDS011;1506;48.932;9.478;2022-09-17T04:12:36;4.17;;;1.70;;
2992;SDS011;1506;48.932;9.478;2022-09-17T04:15:04;3.83;;;1.23;;
2992;SDS011;1506;48.932;9.478;2022-09-17T04:17:32;4.20;;;1.77;;
2992;SDS011;1506;48.932;9.478;2022-09-17T04:19:59;2.00;;;1.77;;
2992;SDS011;1506;48.932;9.478;2022-09-17T04:22:26;1.60;;;1.40;;
2992;SDS011;1506;48.932;9.478;2022-09-17T04:24:54;1.63;;;1.30;;
2992;SDS011;1506;48.932;9.478;2022-09-17T04:27:21;1.60;;;1.50;;
2992;SDS011;1506;48.932;9.478;2022-09-17T04:29:49;1.37;;;1.30;;
2992;SDS011;1506;48.932;9.478;2022-09-17T04:32:16;1.77;;;1.67;;
2992;SDS011;1506;48.932;9.478;2022-09-17T04:34:43;10.70;;;2.07;;
2992;SDS011;1506;48.932;9.478;2022-09-17T04:37:11;1.03;;;1.03;;
2992;SDS011;1506;48.932;9.478;2022-09-17T04:39:38;3.53;;;2.20;;
2992;SDS011;1506;48.932;9.478;2022-09-17T04:42:05;1.70;;;1.60;;
2992;SDS011;1506;48.932;9.478;2022-09-17T04:44:33;2.00;;;1.90;;
2992;SDS011;1506;48.932;9.478;2022-09-17T04:47:00;1.80;;;1.70;;
2992;SDS011;1506;48.932;9.478;2022-09-17T04:49:27;6.77;;;1.37;;
2992;SDS011;1506;48.932;9.478;2022-09-17T04:51:56;2.83;;;1.50;;
2992;SDS011;1506;48.932;9.478;2022-09-17T04:54:23;3.53;;;1.60;;
2992;SDS011;1506;48.932;9.478;2022-09-17T04:56:50;2.67;;;2.17;;
2992;SDS011;1506;48.932;9.478;2022-09-17T04:59:18;2.83;;;1.80;;
2992;SDS011;1506;48.932;9.478;2022-09-17T05:01:45;2.70;;;2.37;;
2992;SDS011;1506;48.932;9.478;2022-09-17T05:04:12;2.30;;;2.20;;
2992;SDS011;1506;48.932;9.478;2022-09-17T05:06:40;8.23;;;1.90;;
2992;SDS011;1506;48.932;9.478;2022-09-17T05:09:07;7.23;;;2.10;;
2992;SDS011;1506;48.932;9.478;2022-09-17T05:11:34;5.50;;;2.20;;
2992;SDS011;1506;48.932;9.478;2022-09-17T05:14:02;6.70;;;2.93;;
2992;SDS011;1506;48.932;9.478;2022-09-17T05:16:29;3.30;;;2.10;;
2992;SDS011;1506;48.932;9.478;2022-09-17T05:18:57;3.50;;;2.40;;
2992;SDS011;1506;48.932;9.478;2022-09-17T05:21:24;5.00;;;2.40;;
2992;SDS011;1506;48.932;9.478;2022-09-17T05:23:51;6.63;;;2.20;;
2992;SDS011;1506;48.932;9.478;2022-09-17T05:26:19;7.33;;;1.90;;
2992;SDS011;1506;48.932;9.478;2022-09-17T05:28:46;2.33;;;2.20;;
2992;SDS011;1506;48.932;9.478;2022-09-17T05:31:13;2.70;;;2.23;;
2992;SDS011;1506;48.932;9.478;2022-09-17T05:33:41;4.50;;;2.30;;
2992;SDS011;1506;48.932;9.478;2022-09-17T05:36:08;3.43;;;1.83;;
2992;SDS011;1506;48.932;9.478;2022-09-17T05:38:35;2.10;;;2.00;;
2992;SDS011;1506;48.932;9.478;2022-09-17T05:41:06;2.03;;;1.93;;
2992;SDS011;1506;48.932;9.478;2022-09-17T05:43:34;7.50;;;2.50;;
2992;SDS011;1506;48.932;9.478;2022-09-17T05:46:02;3.40;;;2.33;;
2992;SDS011;1506;48.932;9.478;2022-09-17T05:48:31;2.77;;;2.50;;
2992;SDS011;1506;48.932;9.478;2022-09-17T05:50:58;4.30;;;3.47;;
2992;SDS011;1506;48.932;9.478;2022-09-17T05:53:25;6.10;;;2.80;;
2992;SDS011;1506;48.932;9.478;2022-09-17T05:55:56;2.37;;;2.27;;
2992;SDS011;1506;48.932;9.478;2022-09-17T05:58:24;3.20;;;3.00;;
2992;SDS011;1506;48.932;9.478;2022-09-17T06:00:52;4.70;;;2.77;;
2992;SDS011;1506;48.932;9.478;2022-09-17T06:03:19;7.03;;;2.00;;
2992;SDS011;1506;48.932;9.478;2022-09-17T06:05:54;4.27;;;2.77;;
2992;SDS011;1506;48.932;9.478;2022-09-17T06:08:23;4.60;;;2.57;;
2992;SDS011;1506;48.932;9.478;2022-09-17T06:10:52;5.87;;;3.10;;
2992;SDS011;1506;48.932;9.478;2022-09-17T06:13:23;2.10;;;2.00;;
2992;SDS011;1506;48.932;9.478;2022-09-17T06:15:51;1.80;;;1.70;;
2992;SDS011;1506;48.932;9.478;2022-09-17T06:18:19;7.90;;;2.90;;
2992;SDS011;1506;48.932;9.478;2022-09-17T06:20:56;4.50;;;3.00;;
2992;SDS011;1506;48.932;9.478;2022-09-17T06:23:25;4.00;;;2.23;;
2992;SDS011;1506;48.932;9.478;2022-09-17T06:25:53;2.17;;;2.07;;
2992;SDS011;1506;48.932;9.478;2022-09-17T06:28:24;5.30;;;2.67;;
2992;SDS011;1506;48.932;9.478;2022-09-17T06:30:52;2.57;;;2.40;;
2992;SDS011;1506;48.932;9.478;2022-09-17T06:33:22;5.37;;;2.13;;
2992;SDS011;1506;48.932;9.478;2022-09-17T06:35:56;3.47;;;2.47;;
2992;SDS011;1506;48.932;9.478;2022-09-17T06:38:28;1.93;;;1.83;;
2992;SDS011;1506;48.932;9.478;2022-09-17T06:40:56;6.53;;;2.50;;
2992;SDS011;1506;48.932;9.478;2022-09-17T06:43:24;6.10;;;2.87;;
2992;SDS011;1506;48.932;9.478;2022-09-17T06:45:55;2.80;;;2.60;;
2992;SDS011;1506;48.932;9.478;2022-09-17T06:48:24;2.00;;;1.90;;
2992;SDS011;1506;48.932;9.478;2022-09-17T06:50:55;2.33;;;1.90;;
2992;SDS011;1506;48.932;9.478;2022-09-17T06:53:27;3.87;;;2.00;;
2992;SDS011;1506;48.932;9.478;2022-09-17T06:55:58;3.73;;;2.13;;
2992;SDS011;1506;48.932;9.478;2022-09-17T06:58:31;2.10;;;2.00;;
2992;SDS011;1506;48.932;9.478;2022-09-17T07:01:02;2.00;;;1.90;;
2992;SDS011;1506;48.932;9.478;2022-09-17T07:03:30;4.20;;;2.10;;
2992;SDS011;1506;48.932;9.478;2022-09-17T07:05:58;6.20;;;2.50;;
2992;SDS011;1506;48.932;9.478;2022-09-17T07:08:25;2.10;;;1.80;;
2992;SDS011;1506;48.932;9.478;2022-09-17T07:10:55;3.10;;;2.90;;
2992;SDS011;1506;48.932;9.478;2022-09-17T07:13:23;2.63;;;2.40;;
2992;SDS011;1506;48.932;9.478;2022-09-17T07:15:52;5.03;;;2.50;;
2992;SDS011;1506;48.932;9.478;2022-09-17T07:18:20;3.17;;;2.10;;
2992;SDS011;1506;48.932;9.478;2022-09-17T07:20:55;3.30;;;2.60;;
2992;SDS011;1506;48.932;9.478;2022-09-17T07:23:27;2.80;;;2.50;;
2992;SDS011;1506;48.932;9.478;2022-09-17T07:25:56;2.07;;;1.87;;
2992;SDS011;1506;48.932;9.478;2022-09-17T07:28:25;5.23;;;2.00;;
2992;SDS011;1506;48.932;9.478;2022-09-17T07:30:53;4.47;;;2.53;;
2992;SDS011;1506;48.932;9.478;2022-09-17T07:33:22;6.13;;;2.50;;
2992;SDS011;1506;48.932;9.478;2022-09-17T07:35:54;2.53;;;2.43;;
2992;SDS011;1506;48.932;9.478;2022-09-17T07:38:26;3.27;;;2.87;;
2992;SDS011;1506;48.932;9.478;2022-09-17T07:40:58;6.50;;;2.87;;
2992;SDS011;1506;48.932;9.478;2022-09-17T07:43:31;9.27;;;3.10;;
2992;SDS011;1506;48.932;9.478;2022-09-17T07:46:00;2.30;;;2.20;;
2992;SDS011;1506;48.932;9.478;2022-09-17T07:48:29;5.90;;;2.87;;
2992;SDS011;1506;48.932;9.478;2022-09-17T07:50:56;2.83;;;2.60;;
2992;SDS011;1506;48.932;9.478;2022-09-17T07:53:24;6.30;;;3.07;;
2992;SDS011;1506;48.932;9.478;2022-09-17T07:55:55;4.43;;;3.23;;
2992;SDS011;1506;48.932;9.478;2022-09-17T07:58:28;4.07;;;2.83;;
2992;SDS011;1506;48.932;9.478;2022-09-17T08:01:03;2.50;;;2.27;;
2992;SDS011;1506;48.932;9.478;2022-09-17T08:03:36;4.20;;;4.00;;
2992;SDS011;1506;48.932;9.478;2022-09-17T08:06:06;7.23;;;3.00;;
2992;SDS011;1506;48.932;9.478;2022-09-17T08:08:39;3.57;;;3.27;;
2992;SDS011;1506;48.932;9.478;2022-09-17T08:11:13;4.00;;;3.80;;
2992;SDS011;1506;48.932;9.478;2022-09-17T08:14:02;3.67;;;3.37;;
2992;SDS011;1506;48.932;9.478;2022-09-17T08:16:29;5.07;;;3.33;;
2992;SDS011;1506;48.932;9.478;2022-09-17T08:18:57;3.03;;;2.93;;
2992;SDS011;1506;48.932;9.478;2022-09-17T08:21:24;3.43;;;2.90;;
2992;SDS011;1506;48.932;9.478;2022-09-17T08:23:52;4.27;;;3.97;;
2992;SDS011;1506;48.932;9.478;2022-09-17T08:26:19;3.40;;;3.20;;
2992;SDS011;1506;48.932;9.478;2022-09-17T08:28:49;4.23;;;3.60;;
2992;SDS011;1506;48.932;9.478;2022-09-17T08:31:21;3.80;;;3.60;;
2992;SDS011;1506;48.932;9.478;2022-09-17T08:33:49;8.10;;;4.20;;
2992;SDS011;1506;48.932;9.478;2022-09-17T08:36:17;3.80;;;3.60;;
2992;SDS011;1506;48.932;9.478;2022-09-17T08:38:46;5.60;;;3.83;;
2992;SDS011;1506;48.932;9.478;2022-09-17T08:44:26;4.67;;;4.23;;
2992;SDS011;1506;48.932;9.478;2022-09-17T08:50:10;8.20;;;4.43;;
2992;SDS011;1506;48.932;9.478;2022-09-17T08:55:42;7.47;;;5.60;;
2992;SDS011;1506;48.932;9.478;2022-09-17T09:01:17;3.83;;;3.63;;
2992;SDS011;1506;48.932;9.478;2022-09-17T09:06:30;3.70;;;3.50;;
2992;SDS011;1506;48.932;9.478;2022-09-17T09:09:12;3.83;;;2.77;;
2992;SDS011;1506;48.932;9.478;2022-09-17T09:11:41;3.53;;;3.20;;
2992;SDS011;1506;48.932;9.478;2022-09-17T09:16:47;4.10;;;2.80;;
2992;SDS011;1506;48.932;9.478;2022-09-17T09:24:23;4.13;;;2.80;;
2992;SDS011;1506;48.932;9.478;2022-09-17T09:27:35;2.20;;;2.07;;
2992;SDS011;1506;48.932;9.478;2022-09-17T09:30:03;12.40;;;2.10;;
2992;SDS011;1506;48.932;9.478;2022-09-17T09:35:44;3.70;;;2.10;;
2992;SDS011;1506;48.932;9.478;2022-09-17T09:38:17;2.07;;;1.30;;
2992;SDS011;1506;48.932;9.478;2022-09-17T09:43:38;2.93;;;2.00;;
2992;SDS011;1506;48.932;9.478;2022-09-17T09:46:30;2.73;;;1.70;;
2992;SDS011;1506;48.932;9.478;2022-09-17T09:57:53;1.67;;;1.57;;
2992;SDS011;1506;48.932;9.478;2022-09-17T10:00:38;6.40;;;2.10;;
2992;SDS011;1506;48.932;9.478;2022-09-17T10:08:38;1.80;;;1.70;;
2992;SDS011;1506;48.932;9.478;2022-09-17T10:13:45;4.53;;;1.87;;
2992;SDS011;1506;48.932;9.478;2022-09-17T10:16:25;8.33;;;2.03;;
2992;SDS011;1506;48.932;9.478;2022-09-17T10:19:10;6.87;;;2.10;;
2992;SDS011;1506;48.932;9.478;2022-09-17T10:21:40;2.17;;;2.07;;
2992;SDS011;1506;48.932;9.478;2022-09-17T10:24:22;2.60;;;1.60;;
2992;SDS011;1506;48.932;9.478;2022-09-17T10:26:52;5.53;;;1.60;;
2992;SDS011;1506;48.932;9.478;2022-09-17T10:29:27;2.80;;;1.73;;
2992;SDS011;1506;48.932;9.478;2022-09-17T10:31:55;1.30;;;1.20;;
2992;SDS011;1506;48.932;9.478;2022-09-17T10:34:23;3.43;;;1.87;;
2992;SDS011;1506;48.932;9.478;2022-09-17T10:36:55;12.73;;;1.60;;
2992;SDS011;1506;48.932;9.478;2022-09-17T10:44:53;2.57;;;1.57;;
2992;SDS011;1506;48.932;9.478;2022-09-17T10:47:24;2.70;;;1.40;;
2992;SDS011;1506;48.932;9.478;2022-09-17T10:50:06;1.63;;;1.30;;
2992;SDS011;1506;48.932;9.478;2022-09-17T10:52:51;2.00;;;1.30;;
2992;SDS011;1506;48.932;9.478;2022-09-17T11:05:57;6.53;;;2.23;;
2992;SDS011;1506;48.932;9.478;2022-09-17T11:17:01;5.83;;;1.93;;
2992;SDS011;1506;48.932;9.478;2022-09-17T11:25:36;4.40;;;3.00;;
2992;SDS011;1506;48.932;9.478;2022-09-17T11:34:55;1.50;;;0.90;;
2992;SDS011;1506;48.932;9.478;2022-09-17T11:42:24;4.57;;;0.83;;
2992;SDS011;1506;48.932;9.478;2022-09-17T11:44:57;0.70;;;0.70;;
2992;SDS011;1506;48.932;9.478;2022-09-17T11:49:59;1.30;;;0.90;;
2992;SDS011;1506;48.932;9.478;2022-09-17T11:52:31;2.33;;;1.73;;
2992;SDS011;1506;48.932;9.478;2022-09-17T11:55:22;2.80;;;1.70;;
2992;SDS011;1506;48.932;9.478;2022-09-17T11:58:02;2.80;;;1.93;;
2992;SDS011;1506;48.932;9.478;2022-09-17T12:00:43;1.13;;;1.13;;
2992;SDS011;1506;48.932;9.478;2022-09-17T12:03:17;0.80;;;0.80;;
2992;SDS011;1506;48.932;9.478;2022-09-17T12:05:56;2.50;;;0.93;;
2992;SDS011;1506;48.932;9.478;2022-09-17T12:08:38;1.20;;;1.03;;
2992;SDS011;1506;48.932;9.478;2022-09-17T12:11:25;1.07;;;0.80;;
2992;SDS011;1506;48.932;9.478;2022-09-17T12:14:25;0.90;;;0.90;;
2992;SDS011;1506;48.932;9.478;2022-09-17T12:16:56;1.33;;;1.23;;
2992;SDS011;1506;48.932;9.478;2022-09-17T12:19:30;1.93;;;1.00;;
2992;SDS011;1506;48.932;9.478;2022-09-17T12:22:00;2.50;;;0.80;;
2992;SDS011;1506;48.932;9.478;2022-09-17T12:24:36;1.20;;;1.20;;
2992;SDS011;1506;48.932;9.478;2022-09-17T12:41:31;1.60;;;1.50;;
2992;SDS011;1506;48.932;9.478;2022-09-17T12:52:47;2.47;;;1.50;;
2992;SDS011;1506;48.932;9.478;2022-09-17T12:58:15;1.80;;;1.70;;
2992;SDS011;1506;48.932;9.478;2022-09-17T13:01:09;1.17;;;1.10;;
2992;SDS011;1506;48.932;9.478;2022-09-17T13:03:52;2.20;;;1.57;;
2992;SDS011;1506;48.932;9.478;2022-09-17T13:06:37;2.97;;;1.30;;
2992;SDS011;1506;48.932;9.478;2022-09-17T13:09:35;2.50;;;1.30;;
2992;SDS011;1506;48.932;9.478;2022-09-17T13:17:10;1.07;;;0.97;;
2992;SDS011;1506;48.932;9.478;2022-09-17T13:22:42;1.27;;;1.00;;
2992;SDS011;1506;48.932;9.478;2022-09-17T13:25:11;1.13;;;1.13;;
2992;SDS011;1506;48.932;9.478;2022-09-17T13:27:40;1.03;;;0.93;;
2992;SDS011;1506;48.932;9.478;2022-09-17T13:30:09;3.17;;;1.10;;
2992;SDS011;1506;48.932;9.478;2022-09-17T13:32:41;2.97;;;2.70;;
2992;SDS011;1506;48.932;9.478;2022-09-17T13:40:19;2.03;;;1.13;;
2992;SDS011;1506;48.932;9.478;2022-09-17T13:42:50;1.00;;;1.00;;
2992;SDS011;1506;48.932;9.478;2022-09-17T13:48:31;2.60;;;1.00;;
2992;SDS011;1506;48.932;9.478;2022-09-17T13:54:01;2.40;;;1.00;;
2992;SDS011;1506;48.932;9.478;2022-09-17T13:59:18;1.23;;;0.90;;
2992;SDS011;1506;48.932;9.478;2022-09-17T14:02:00;2.30;;;0.70;;
2992;SDS011;1506;48.932;9.478;2022-09-17T14:18:53;2.40;;;1.30;;
2992;SDS011;1506;48.932;9.478;2022-09-17T14:21:17;2.73;;;1.50;;
2992;SDS011;1506;48.932;9.478;2022-09-17T14:23:48;1.13;;;1.03;;
2992;SDS011;1506;48.932;9.478;2022-09-17T14:32:06;3.77;;;0.80;;
2992;SDS011;1506;48.932;9.478;2022-09-17T14:34:40;1.20;;;1.10;;
2992;SDS011;1506;48.932;9.478;2022-09-17T14:37:11;2.87;;;0.80;;
2992;SDS011;1506;48.932;9.478;2022-09-17T14:39:41;0.70;;;0.70;;
2992;SDS011;1506;48.932;9.478;2022-09-17T14:42:12;1.10;;;1.00;;
2992;SDS011;1506;48.932;9.478;2022-09-17T14:44:50;0.80;;;0.80;;
2992;SDS011;1506;48.932;9.478;2022-09-17T14:47:24;9.70;;;1.00;;
2992;SDS011;1506;48.932;9.478;2022-09-17T14:49:52;1.80;;;1.33;;
2992;SDS011;1506;48.932;9.478;2022-09-17T14:57:40;10.80;;;1.20;;
2992;SDS011;1506;48.932;9.478;2022-09-17T15:00:16;4.43;;;0.90;;
2992;SDS011;1506;48.932;9.478;2022-09-17T15:02:51;1.57;;;0.73;;
2992;SDS011;1506;48.932;9.478;2022-09-17T15:10:38;3.80;;;1.20;;
2992;SDS011;1506;48.932;9.478;2022-09-17T15:13:18;5.93;;;1.37;;
2992;SDS011;1506;48.932;9.478;2022-09-17T15:15:52;1.00;;;1.00;;
2992;SDS011;1506;48.932;9.478;2022-09-17T15:18:20;0.80;;;0.80;;
2992;SDS011;1506;48.932;9.478;2022-09-17T15:20:49;4.03;;;1.53;;
2992;SDS011;1506;48.932;9.478;2022-09-17T15:23:24;1.20;;;1.10;;
2992;SDS011;1506;48.932;9.478;2022-09-17T15:25:53;1.37;;;0.97;;
2992;SDS011;1506;48.932;9.478;2022-09-17T15:31:00;2.10;;;0.93;;
2992;SDS011;1506;48.932;9.478;2022-09-17T15:33:30;4.30;;;1.60;;
2992;SDS011;1506;48.932;9.478;2022-09-17T15:38:39;1.20;;;1.10;;
2992;SDS011;1506;48.932;9.478;2022-09-17T15:43:46;1.47;;;1.37;;
2992;SDS011;1506;48.932;9.478;2022-09-17T15:46:28;3.83;;;1.40;;
2992;SDS011;1506;48.932;9.478;2022-09-17T15:48:59;2.93;;;1.00;;
2992;SDS011;1506;48.932;9.478;2022-09-17T15:51:28;1.00;;;1.00;;
2992;SDS011;1506;48.932;9.478;2022-09-17T15:54:04;1.77;;;1.23;;
2992;SDS011;1506;48.932;9.478;2022-09-17T15:56:32;2.67;;;0.87;;
2992;SDS011;1506;48.932;9.478;2022-09-17T15:59:25;1.20;;;1.00;;
2992;SDS011;1506;48.932;9.478;2022-09-17T16:01:55;2.60;;;1.57;;
2992;SDS011;1506;48.932;9.478;2022-09-17T16:04:25;3.73;;;1.20;;
2992;SDS011;1506;48.932;9.478;2022-09-17T16:12:07;3.93;;;1.17;;
2992;SDS011;1506;48.932;9.478;2022-09-17T16:14:41;1.43;;;1.33;;
2992;SDS011;1506;48.932;9.478;2022-09-17T16:19:47;0.90;;;0.90;;
2992;SDS011;1506;48.932;9.478;2022-09-17T16:22:14;1.20;;;1.10;;
2992;SDS011;1506;48.932;9.478;2022-09-17T16:24:42;1.57;;;1.47;;
2992;SDS011;1506;48.932;9.478;2022-09-17T16:27:11;8.53;;;1.93;;
2992;SDS011;1506;48.932;9.478;2022-09-17T16:29:45;1.17;;;1.10;;
2992;SDS011;1506;48.932;9.478;2022-09-17T16:32:13;2.60;;;2.07;;
2992;SDS011;1506;48.932;9.478;2022-09-17T16:34:40;1.90;;;1.13;;
2992;SDS011;1506;48.932;9.478;2022-09-17T16:37:08;1.33;;;1.13;;
2992;SDS011;1506;48.932;9.478;2022-09-17T16:39:36;2.30;;;1.53;;
2992;SDS011;1506;48.932;9.478;2022-09-17T16:42:03;1.20;;;1.10;;
2992;SDS011;1506;48.932;9.478;2022-09-17T16:44:32;2.30;;;1.60;;
2992;SDS011;1506;48.932;9.478;2022-09-17T16:46:59;1.77;;;1.67;;
2992;SDS011;1506;48.932;9.478;2022-09-17T16:49:27;1.43;;;1.33;;
2992;SDS011;1506;48.932;9.478;2022-09-17T16:51:54;2.30;;;1.27;;
2992;SDS011;1506;48.932;9.478;2022-09-17T16:54:21;1.30;;;1.20;;
2992;SDS011;1506;48.932;9.478;2022-09-17T16:56:48;3.10;;;1.43;;
2992;SDS011;1506;48.932;9.478;2022-09-17T16:59:16;4.93;;;2.10;;
2992;SDS011;1506;48.932;9.478;2022-09-17T17:01:43;7.20;;;1.97;;
2992;SDS011;1506;48.932;9.478;2022-09-17T17:04:13;3.13;;;1.40;;
2992;SDS011;1506;48.932;9.478;2022-09-17T17:06:41;2.50;;;1.23;;
2992;SDS011;1506;48.932;9.478;2022-09-17T17:09:08;1.73;;;1.63;;
2992;SDS011;1506;48.932;9.478;2022-09-17T17:11:37;5.63;;;1.30;;
2992;SDS011;1506;48.932;9.478;2022-09-17T17:14:04;1.10;;;1.10;;
2992;SDS011;1506;48.932;9.478;2022-09-17T17:16:36;1.50;;;1.40;;
2992;SDS011;1506;48.932;9.478;2022-09-17T17:19:06;1.40;;;1.30;;
2992;SDS011;1506;48.932;9.478;2022-09-17T17:21:33;8.90;;;1.30;;
2992;SDS011;1506;48.932;9.478;2022-09-17T17:24:00;2.67;;;1.93;;
2992;SDS011;1506;48.932;9.478;2022-09-17T17:26:28;2.90;;;1.60;;
2992;SDS011;1506;48.932;9.478;2022-09-17T17:28:56;3.00;;;1.20;;
2992;SDS011;1506;48.932;9.478;2022-09-17T17:31:23;1.43;;;1.30;;
2992;SDS011;1506;48.932;9.478;2022-09-17T17:33:50;2.53;;;1.40;;
2992;SDS011;1506;48.932;9.478;2022-09-17T17:36:18;1.43;;;1.33;;
2992;SDS011;1506;48.932;9.478;2022-09-17T17:38:45;2.73;;;1.80;;
2992;SDS011;1506;48.932;9.478;2022-09-17T17:41:13;5.60;;;0.70;;
2992;SDS011;1506;48.932;9.478;2022-09-17T17:43:43;1.10;;;1.10;;
2992;SDS011;1506;48.932;9.478;2022-09-17T17:46:10;1.00;;;0.83;;
2992;SDS011;1506;48.932;9.478;2022-09-17T17:48:38;2.17;;;1.10;;
2992;SDS011;1506;48.932;9.478;2022-09-17T17:51:08;0.70;;;0.70;;
2992;SDS011;1506;48.932;9.478;2022-09-17T17:53:36;2.50;;;0.73;;
2992;SDS011;1506;48.932;9.478;2022-09-17T17:56:06;1.87;;;1.00;;
2992;SDS011;1506;48.932;9.478;2022-09-17T17:58:34;2.17;;;0.70;;
2992;SDS011;1506;48.932;9.478;2022-09-17T18:01:12;1.27;;;1.10;;
2992;SDS011;1506;48.932;9.478;2022-09-17T18:03:41;3.13;;;1.87;;
2992;SDS011;1506;48.932;9.478;2022-09-17T18:06:09;3.27;;;1.13;;
2992;SDS011;1506;48.932;9.478;2022-09-17T18:08:37;1.90;;;1.50;;
2992;SDS011;1506;48.932;9.478;2022-09-17T18:11:06;2.30;;;1.13;;
2992;SDS011;1506;48.932;9.478;2022-09-17T18:13:34;8.73;;;1.20;;
2992;SDS011;1506;48.932;9.478;2022-09-17T18:16:03;1.63;;;1.17;;
2992;SDS011;1506;48.932;9.478;2022-09-17T18:18:35;5.50;;;1.10;;
2992;SDS011;1506;48.932;9.478;2022-09-17T18:21:10;1.23;;;1.17;;
2992;SDS011;1506;48.932;9.478;2022-09-17T18:23:40;1.43;;;1.33;;
2992;SDS011;1506;48.932;9.478;2022-09-17T18:26:12;2.30;;;1.93;;
2992;SDS011;1506;48.932;9.478;2022-09-17T18:28:44;2.87;;;1.57;;
2992;SDS011;1506;48.932;9.478;2022-09-17T18:31:17;1.20;;;1.20;;
2992;SDS011;1506;48.932;9.478;2022-09-17T18:33:53;1.90;;;1.80;;
2992;SDS011;1506;48.932;9.478;2022-09-17T18:36:26;2.10;;;1.90;;
2992;SDS011;1506;48.932;9.478;2022-09-17T18:38:55;2.23;;;1.97;;
2992;SDS011;1506;48.932;9.478;2022-09-17T18:41:46;6.30;;;1.87;;
2992;SDS011;1506;48.932;9.478;2022-09-17T18:44:14;4.03;;;1.97;;
2992;SDS011;1506;48.932;9.478;2022-09-17T18:46:43;2.90;;;2.33;;
2992;SDS011;1506;48.932;9.478;2022-09-17T18:49:13;1.40;;;1.30;;
2992;SDS011;1506;48.932;9.478;2022-09-17T18:51:40;1.60;;;1.50;;
2992;SDS011;1506;48.932;9.478;2022-09-17T18:54:08;1.87;;;1.77;;
2992;SDS011;1506;48.932;9.478;2022-09-17T18:56:37;2.10;;;1.90;;
2992;SDS011;1506;48.932;9.478;2022-09-17T18:59:06;1.97;;;1.87;;
2992;SDS011;1506;48.932;9.478;2022-09-17T19:01:34;1.63;;;1.53;;
2992;SDS011;1506;48.932;9.478;2022-09-17T19:04:02;1.80;;;1.47;;
2992;SDS011;1506;48.932;9.478;2022-09-17T19:06:30;2.20;;;1.63;;
2992;SDS011;1506;48.932;9.478;2022-09-17T19:08:58;1.60;;;1.50;;
2992;SDS011;1506;48.932;9.478;2022-09-17T19:11:26;1.40;;;1.30;;
2992;SDS011;1506;48.932;9.478;2022-09-17T19:13:54;2.00;;;1.90;;
2992;SDS011;1506;48.932;9.478;2022-09-17T19:16:21;1.20;;;1.10;;
2992;SDS011;1506;48.932;9.478;2022-09-17T19:18:49;1.20;;;1.10;;
2992;SDS011;1506;48.932;9.478;2022-09-17T19:21:17;2.97;;;1.20;;
2992;SDS011;1506;48.932;9.478;2022-09-17T19:23:47;1.33;;;1.23;;
2992;SDS011;1506;48.932;9.478;2022-09-17T19:26:17;1.60;;;1.50;;
2992;SDS011;1506;48.932;9.478;2022-09-17T19:28:45;2.63;;;2.53;;
2992;SDS011;1506;48.932;9.478;2022-09-17T19:31:14;1.87;;;1.77;;